createdAt,value
2023-05-23T00:00:02.046Z,98117.97
2023-05-23T00:02:29.409Z,98114.06
2023-05-23T00:04:58.714Z,98118.75
2023-05-23T00:07:26.602Z,98128.38
2023-05-23T00:09:53.306Z,98117.38
2023-05-23T00:12:20.616Z,98115.19
2023-05-23T00:14:47.930Z,98111.34
2023-05-23T00:17:14.672Z,98119.69
2023-05-23T00:22:18.790Z,98122.16
2023-05-23T00:24:45.652Z,98116.56
2023-05-23T00:27:12.318Z,98119.41
2023-05-23T00:29:39.100Z,98117.91
2023-05-23T00:32:05.869Z,98120.25
2023-05-23T00:34:32.576Z,98118.81
2023-05-23T00:37:00.031Z,98130.63
2023-05-23T00:39:26.686Z,98124.81
2023-05-23T00:41:53.472Z,98131.25
2023-05-23T00:44:21.893Z,98127.59
2023-05-23T00:46:55.541Z,98131.34
2023-05-23T00:49:22.591Z,98124.66
2023-05-23T00:51:52.382Z,98135.56
2023-05-23T00:54:24.628Z,98129.88
2023-05-23T00:56:51.591Z,98131.06
2023-05-23T00:59:18.376Z,98130.22
2023-05-23T01:01:47.586Z,98140.50
2023-05-23T01:04:17.003Z,98135.06
2023-05-23T01:06:47.315Z,98146.97
2023-05-23T01:09:16.198Z,98145.34
2023-05-23T01:12:36.093Z,98147.69
2023-05-23T01:15:12.736Z,98148.47
2023-05-23T01:20:26.204Z,98147.31
2023-05-23T01:23:01.772Z,98145.09
2023-05-23T01:25:43.440Z,98142.41
2023-05-23T01:28:15.321Z,98140.88
2023-05-23T01:30:44.958Z,98144.72
2023-05-23T01:33:14.277Z,98144.78
2023-05-23T01:35:43.982Z,98141.34
2023-05-23T01:38:10.783Z,98138.91
2023-05-23T01:40:38.438Z,98135.31
2023-05-23T01:43:05.191Z,98139.38
2023-05-23T01:45:32.211Z,98137.13
2023-05-23T01:47:59.444Z,98142.59
2023-05-23T01:50:27.076Z,98139.63
2023-05-23T01:52:54.423Z,98143.00
2023-05-23T01:55:26.713Z,98145.22
2023-05-23T01:57:57.774Z,98153.50
2023-05-23T02:03:03.124Z,98147.03
2023-05-23T02:05:30.665Z,98141.72
2023-05-23T02:07:57.428Z,98146.94
2023-05-23T02:10:24.147Z,98151.94
2023-05-23T02:12:50.879Z,98151.78
2023-05-23T02:15:17.772Z,98148.97
2023-05-23T02:17:44.573Z,98149.75
2023-05-23T02:20:11.554Z,98152.91
2023-05-23T02:22:39.124Z,98150.41
2023-05-23T02:25:06.575Z,98141.94
2023-05-23T02:27:33.267Z,98152.59
2023-05-23T02:29:59.942Z,98152.50
2023-05-23T02:32:26.670Z,98158.28
2023-05-23T02:37:27.740Z,98155.91
2023-05-23T02:39:54.470Z,98155.22
2023-05-23T02:42:21.136Z,98156.03
2023-05-23T02:44:48.119Z,98153.72
2023-05-23T02:47:14.808Z,98159.94
2023-05-23T02:49:41.490Z,98158.41
2023-05-23T02:52:08.217Z,98163.47
2023-05-23T02:54:34.905Z,98162.19
2023-05-23T02:57:01.692Z,98164.94
2023-05-23T02:59:28.439Z,98169.59
2023-05-23T03:01:55.200Z,98159.59
2023-05-23T03:04:21.956Z,98169.34
2023-05-23T03:06:48.892Z,98168.94
2023-05-23T03:09:19.475Z,98172.41
2023-05-23T03:11:46.726Z,98172.00
2023-05-23T03:14:13.667Z,98165.25
2023-05-23T03:16:40.865Z,98169.94
2023-05-23T03:19:07.938Z,98171.84
2023-05-23T03:21:35.917Z,98177.63
2023-05-23T03:24:02.793Z,98173.31
2023-05-23T03:26:29.770Z,98171.91
2023-05-23T03:28:56.915Z,98176.47
2023-05-23T03:31:23.942Z,98186.66
2023-05-23T03:33:51.063Z,98174.88
2023-05-23T03:36:17.988Z,98180.41
2023-05-23T03:38:44.901Z,98179.56
2023-05-23T03:41:11.817Z,98185.00
2023-05-23T03:43:38.671Z,98183.91
2023-05-23T03:46:05.658Z,98181.06
2023-05-23T03:48:32.569Z,98186.56
2023-05-23T03:53:34.352Z,98181.38
2023-05-23T03:56:02.130Z,98172.63
2023-05-23T03:58:28.948Z,98181.34
2023-05-23T04:00:55.883Z,98179.78
2023-05-23T04:03:23.078Z,98183.22
2023-05-23T04:05:50.406Z,98184.88
2023-05-23T04:08:17.853Z,98183.38
2023-05-23T04:10:44.702Z,98181.84
2023-05-23T04:13:11.596Z,98187.34
2023-05-23T04:18:11.256Z,98189.81
2023-05-23T04:20:38.153Z,98188.72
2023-05-23T04:23:04.923Z,98184.31
2023-05-23T04:25:31.585Z,98186.28
2023-05-23T04:27:58.282Z,98191.44
2023-05-23T04:30:25.011Z,98200.53
2023-05-23T04:32:52.430Z,98197.69
2023-05-23T04:35:19.149Z,98196.78
2023-05-23T04:37:45.807Z,98193.25
2023-05-23T04:40:13.698Z,98210.28
2023-05-23T04:42:42.663Z,98203.94
2023-05-23T04:45:10.204Z,98205.88
2023-05-23T04:47:37.713Z,98206.59
2023-05-23T04:50:05.758Z,98209.34
2023-05-23T04:52:34.385Z,98210.09
2023-05-23T04:55:01.584Z,98213.31
2023-05-23T04:57:28.672Z,98209.59
2023-05-23T04:59:55.537Z,98217.84
2023-05-23T05:02:22.285Z,98210.34
2023-05-23T05:07:26.797Z,98217.63
2023-05-23T05:09:53.476Z,98218.41
2023-05-23T05:12:20.175Z,98226.22
2023-05-23T05:14:46.858Z,98226.16
2023-05-23T05:17:13.635Z,98232.47
2023-05-23T05:19:40.478Z,98232.47
2023-05-23T05:22:08.263Z,98236.00
2023-05-23T05:24:34.995Z,98232.47
2023-05-23T05:27:01.825Z,98239.06
2023-05-23T05:29:29.051Z,98236.72
2023-05-23T05:31:55.866Z,98234.44
2023-05-23T05:34:23.111Z,98241.53
2023-05-23T05:36:49.933Z,98243.50
2023-05-23T05:39:17.166Z,98236.72
2023-05-23T05:41:43.872Z,98235.91
2023-05-23T05:44:10.702Z,98239.75
2023-05-23T05:49:14.493Z,98243.25
2023-05-23T05:51:41.141Z,98246.19
2023-05-23T05:54:08.042Z,98239.88
2023-05-23T05:56:34.829Z,98242.16
2023-05-23T05:59:01.529Z,98237.09
2023-05-23T06:01:28.217Z,98242.53
2023-05-23T06:03:55.128Z,98244.06
2023-05-23T06:06:22.778Z,98254.06
2023-05-23T06:08:49.449Z,98254.53
2023-05-23T06:11:16.204Z,98255.78
2023-05-23T06:13:42.977Z,98251.41
2023-05-23T06:16:09.716Z,98251.75
2023-05-23T06:18:36.424Z,98250.81
2023-05-23T06:21:03.200Z,98253.09
2023-05-23T06:23:29.899Z,98263.00
2023-05-23T06:25:56.650Z,98253.47
2023-05-23T06:28:23.337Z,98259.88
2023-05-23T06:30:50.051Z,98253.88
2023-05-23T06:33:16.883Z,98259.31
2023-05-23T06:35:43.706Z,98265.69
2023-05-23T06:38:10.408Z,98267.28
2023-05-23T06:40:37.163Z,98269.19
2023-05-23T06:43:03.850Z,98271.19
2023-05-23T06:45:30.500Z,98268.72
2023-05-23T06:47:57.319Z,98264.38
2023-05-23T06:52:55.280Z,98281.25
2023-05-23T06:55:23.033Z,98287.72
2023-05-23T06:57:52.805Z,98288.31
2023-05-23T07:00:19.895Z,98285.97
2023-05-23T07:02:48.915Z,98289.25
2023-05-23T07:05:16.478Z,98282.84
2023-05-23T07:07:43.837Z,98290.84
2023-05-23T07:10:11.124Z,98289.25
2023-05-23T07:12:38.005Z,98297.22
2023-05-23T07:15:05.135Z,98288.66
2023-05-23T07:17:31.884Z,98296.47
2023-05-23T07:19:58.659Z,98296.41
2023-05-23T07:22:25.366Z,98302.75
2023-05-23T07:24:52.006Z,98310.41
2023-05-23T07:27:18.675Z,98305.47
2023-05-23T07:29:45.456Z,98313.50
2023-05-23T07:32:12.126Z,98308.25
2023-05-23T07:37:16.533Z,98314.22
2023-05-23T07:39:43.260Z,98318.13
2023-05-23T07:42:09.946Z,98316.00
2023-05-23T07:44:36.864Z,98324.75
2023-05-23T07:47:03.748Z,98323.06
2023-05-23T07:49:30.603Z,98325.28
2023-05-23T07:51:58.123Z,98316.91
2023-05-23T07:54:24.948Z,98318.81
2023-05-23T07:56:53.335Z,98320.50
2023-05-23T07:59:20.218Z,98325.69
2023-05-23T08:01:46.945Z,98320.41
2023-05-23T08:04:13.843Z,98323.94
2023-05-23T08:06:45.765Z,98334.16
2023-05-23T08:09:18.707Z,98328.91
2023-05-23T08:11:45.520Z,98330.56
2023-05-23T08:14:12.183Z,98336.84
2023-05-23T08:16:39.238Z,98335.78
2023-05-23T08:19:06.436Z,98337.19
2023-05-23T08:21:33.671Z,98343.22
2023-05-23T08:24:00.472Z,98343.28
2023-05-23T08:26:28.207Z,98345.59
2023-05-23T08:28:54.977Z,98352.63
2023-05-23T08:31:22.224Z,98353.75
2023-05-23T08:33:48.951Z,98365.88
2023-05-23T08:36:15.765Z,98349.53
2023-05-23T08:38:42.465Z,98350.97
2023-05-23T08:41:19.046Z,98355.16
2023-05-23T08:43:45.898Z,98361.41
2023-05-23T08:46:13.841Z,98361.81
2023-05-23T08:48:43.076Z,98367.81
2023-05-23T08:51:14.488Z,98374.88
2023-05-23T08:53:47.250Z,98373.34
2023-05-23T08:56:14.391Z,98368.50
2023-05-23T08:58:44.712Z,98373.94
2023-05-23T09:01:13.742Z,98368.28
2023-05-23T09:03:42.736Z,98375.16
2023-05-23T09:06:11.120Z,98377.56
2023-05-23T09:08:38.162Z,98383.63
2023-05-23T09:11:07.125Z,98396.50
2023-05-23T09:13:34.392Z,98389.03
2023-05-23T09:16:05.329Z,98390.22
2023-05-23T09:18:37.670Z,98393.69
2023-05-23T09:21:05.358Z,98394.56
2023-05-23T09:23:33.208Z,98388.94
2023-05-23T09:26:04.765Z,98387.03
2023-05-23T09:28:35.121Z,98397.25
2023-05-23T09:31:03.604Z,98398.88
2023-05-23T09:33:53.135Z,98399.94
2023-05-23T09:36:19.897Z,98393.84
2023-05-23T09:41:25.424Z,98403.56
2023-05-23T09:43:53.734Z,98412.16
2023-05-23T09:49:00.528Z,98398.75
2023-05-23T09:51:28.499Z,98400.66
2023-05-23T09:53:57.163Z,98411.13
2023-05-23T09:56:25.102Z,98407.31
2023-05-23T09:58:52.400Z,98408.16
2023-05-23T10:01:19.983Z,98411.81
2023-05-23T10:03:51.181Z,98412.53
2023-05-23T10:06:35.221Z,98409.69
2023-05-23T10:09:06.278Z,98412.47
2023-05-23T10:11:35.682Z,98406.63
2023-05-23T10:16:42.747Z,98408.78
2023-05-23T10:19:21.098Z,98409.34
2023-05-23T10:21:51.578Z,98408.00
2023-05-23T10:24:19.056Z,98408.84
2023-05-23T10:26:46.262Z,98420.13
2023-05-23T10:29:12.948Z,98417.81
2023-05-23T10:31:41.049Z,98422.03
2023-05-23T10:34:40.825Z,98415.44
2023-05-23T10:37:08.550Z,98416.66
2023-05-23T10:40:00.388Z,98420.13
2023-05-23T10:42:39.768Z,98420.63
2023-05-23T10:48:00.529Z,98413.16
2023-05-23T10:50:33.658Z,98420.81
2023-05-23T10:53:05.294Z,98419.19
2023-05-23T10:55:37.107Z,98414.44
2023-05-23T10:58:17.875Z,98414.88
2023-05-23T11:00:54.724Z,98412.03
2023-05-23T11:03:43.904Z,98419.03
2023-05-23T11:06:28.363Z,98414.50
2023-05-23T11:09:06.316Z,98419.41
2023-05-23T11:12:06.170Z,98423.25
2023-05-23T11:14:33.727Z,98423.19
2023-05-23T11:17:12.565Z,98424.53
2023-05-23T11:19:40.125Z,98426.56
2023-05-23T11:22:10.322Z,98434.47
2023-05-23T11:24:53.678Z,98422.94
2023-05-23T11:27:34.965Z,98437.16
2023-05-23T11:30:10.239Z,98437.69
2023-05-23T11:32:37.759Z,98430.75
2023-05-23T11:35:07.206Z,98432.47
2023-05-23T11:37:34.813Z,98420.38
2023-05-23T11:40:27.429Z,98427.84
2023-05-23T11:42:54.972Z,98426.16
2023-05-23T11:45:22.977Z,98426.53
2023-05-23T11:47:49.898Z,98428.59
2023-05-23T11:50:17.034Z,98433.50
2023-05-23T11:52:43.982Z,98419.66
2023-05-23T11:55:11.029Z,98421.25
2023-05-23T11:57:41.478Z,98414.56
2023-05-23T12:00:09.113Z,98412.47
2023-05-23T12:02:40.918Z,98420.59
2023-05-23T12:05:13.988Z,98415.78
2023-05-23T12:07:42.278Z,98420.03
2023-05-23T12:10:12.152Z,98418.47
2023-05-23T12:12:39.020Z,98407.94
2023-05-23T12:15:06.261Z,98408.00
2023-05-23T12:17:33.459Z,98414.97
2023-05-23T12:20:00.641Z,98406.13
2023-05-23T12:22:28.729Z,98405.44
2023-05-23T12:24:56.811Z,98406.41
2023-05-23T12:27:30.666Z,98401.16
2023-05-23T12:30:29.900Z,98394.81
2023-05-23T12:32:56.634Z,98396.03
2023-05-23T12:35:26.135Z,98400.94
2023-05-23T12:37:55.075Z,98400.44
2023-05-23T12:40:22.081Z,98387.41
2023-05-23T12:42:53.322Z,98394.19
2023-05-23T12:45:34.113Z,98389.19
2023-05-23T12:48:02.425Z,98391.72
2023-05-23T12:50:29.514Z,98388.03
2023-05-23T12:52:56.274Z,98385.09
2023-05-23T12:55:23.018Z,98372.88
2023-05-23T12:57:49.772Z,98382.88
2023-05-23T13:00:16.874Z,98378.97
2023-05-23T13:02:43.745Z,98376.47
2023-05-23T13:05:10.549Z,98375.06
2023-05-23T13:07:38.118Z,98370.81
2023-05-23T13:10:05.252Z,98376.03
2023-05-23T13:12:33.160Z,98370.31
2023-05-23T13:14:59.967Z,98375.81
2023-05-23T13:17:26.751Z,98370.94
2023-05-23T13:19:53.499Z,98380.34
2023-05-23T13:22:20.235Z,98374.09
2023-05-23T13:27:19.871Z,98378.59
2023-05-23T13:29:46.564Z,98382.63
2023-05-23T13:34:51.569Z,98383.97
2023-05-23T13:37:18.562Z,98381.75
2023-05-23T13:39:45.382Z,98378.78
2023-05-23T13:42:12.146Z,98378.94
2023-05-23T13:44:38.902Z,98386.38
2023-05-23T13:47:15.759Z,98384.94
2023-05-23T13:49:43.274Z,98384.31
2023-05-23T13:52:10.033Z,98387.09
2023-05-23T13:54:36.738Z,98388.56
2023-05-23T13:57:03.704Z,98387.78
2023-05-23T13:59:30.598Z,98384.13
2023-05-23T14:01:57.502Z,98383.56
2023-05-23T14:04:24.303Z,98383.63
2023-05-23T14:09:24.215Z,98375.28
2023-05-23T14:11:52.542Z,98379.13
2023-05-23T14:14:19.329Z,98383.19
2023-05-23T14:16:46.328Z,98383.47
2023-05-23T14:19:13.195Z,98377.97
2023-05-23T14:21:40.034Z,98369.34
2023-05-23T14:24:06.796Z,98375.31
2023-05-23T14:26:33.484Z,98378.50
2023-05-23T14:29:00.191Z,98379.00
2023-05-23T14:31:26.992Z,98374.91
2023-05-23T14:33:53.774Z,98372.34
2023-05-23T14:36:20.549Z,98375.75
2023-05-23T14:38:47.295Z,98375.06
2023-05-23T14:41:14.396Z,98379.56
2023-05-23T14:43:41.293Z,98377.91
2023-05-23T14:48:46.426Z,98377.72
2023-05-23T14:51:21.472Z,98367.19
2023-05-23T14:53:53.968Z,98366.53
2023-05-23T14:56:20.890Z,98363.56
2023-05-23T14:58:47.761Z,98374.00
2023-05-23T15:01:14.696Z,98373.13
2023-05-23T15:03:41.700Z,98373.38
2023-05-23T15:06:08.911Z,98373.84
2023-05-23T15:08:36.010Z,98365.91
2023-05-23T15:11:02.890Z,98365.00
2023-05-23T15:16:01.744Z,98370.56
2023-05-23T15:18:39.869Z,98367.34
2023-05-23T15:21:08.117Z,98370.34
2023-05-23T15:23:34.838Z,98360.69
2023-05-23T15:26:01.597Z,98365.13
2023-05-23T15:28:28.308Z,98357.47
2023-05-23T15:30:57.262Z,98357.25
2023-05-23T15:33:24.084Z,98360.38
2023-05-23T15:35:51.439Z,98364.25
2023-05-23T15:38:20.065Z,98359.97
2023-05-23T15:40:49.076Z,98359.03
2023-05-23T15:43:15.909Z,98361.59
2023-05-23T15:45:42.769Z,98361.66
2023-05-23T15:50:42.086Z,98359.50
2023-05-23T15:53:09.161Z,98355.84
2023-05-23T15:55:37.187Z,98365.38
2023-05-23T15:58:05.308Z,98364.38
2023-05-23T16:00:32.124Z,98362.38
2023-05-23T16:02:59.035Z,98350.84
2023-05-23T16:05:26.162Z,98357.94
2023-05-23T16:07:52.859Z,98363.44
2023-05-23T16:10:20.104Z,98357.19
2023-05-23T16:12:46.788Z,98362.41
2023-05-23T16:15:13.455Z,98357.28
2023-05-23T16:17:40.122Z,98352.00
2023-05-23T16:20:07.979Z,98357.78
2023-05-23T16:22:34.712Z,98359.34
2023-05-23T16:27:33.216Z,98347.06
2023-05-23T16:29:59.913Z,98344.81
2023-05-23T16:32:28.308Z,98355.22
2023-05-23T16:34:55.060Z,98353.22
2023-05-23T16:37:21.765Z,98338.50
2023-05-23T16:39:48.464Z,98347.94
2023-05-23T16:42:15.255Z,98355.22
2023-05-23T16:47:13.306Z,98350.84
2023-05-23T16:49:39.990Z,98355.06
2023-05-23T16:52:06.803Z,98353.06
2023-05-23T16:54:33.579Z,98351.94
2023-05-23T16:57:02.183Z,98360.00
2023-05-23T16:59:30.130Z,98362.03
2023-05-23T17:01:57.205Z,98362.13
2023-05-23T17:04:24.260Z,98367.16
2023-05-23T17:06:51.258Z,98365.19
2023-05-23T17:09:18.391Z,98365.03
2023-05-23T17:11:45.319Z,98365.59
2023-05-23T17:14:12.094Z,98372.34
2023-05-23T17:16:39.021Z,98370.41
2023-05-23T17:19:05.891Z,98367.38
2023-05-23T17:21:33.104Z,98366.50
2023-05-23T17:23:59.950Z,98357.19
2023-05-23T17:26:27.597Z,98368.63
2023-05-23T17:28:54.345Z,98369.69
2023-05-23T17:31:21.651Z,98365.38
2023-05-23T17:33:48.384Z,98375.59
2023-05-23T17:38:54.007Z,98376.25
2023-05-23T17:41:23.529Z,98379.34
2023-05-23T17:43:50.911Z,98374.25
2023-05-23T17:46:17.671Z,98383.78
2023-05-23T17:48:46.963Z,98391.50
2023-05-23T17:51:15.483Z,98386.78
2023-05-23T17:53:42.625Z,98390.41
2023-05-23T17:56:09.669Z,98384.22
2023-05-23T17:58:41.697Z,98387.41
2023-05-23T18:01:11.861Z,98385.34
2023-05-23T18:03:39.728Z,98397.28
2023-05-23T18:06:07.104Z,98394.25
2023-05-23T18:08:34.152Z,98402.97
2023-05-23T18:11:00.884Z,98401.72
2023-05-23T18:13:27.601Z,98397.72
2023-05-23T18:15:54.262Z,98401.25
2023-05-23T18:18:21.265Z,98395.91
2023-05-23T18:20:58.780Z,98401.97
2023-05-23T18:23:25.791Z,98415.06
2023-05-23T18:25:52.967Z,98411.56
2023-05-23T18:28:19.797Z,98403.19
2023-05-23T18:30:46.489Z,98410.34
2023-05-23T18:33:13.306Z,98408.88
2023-05-23T18:35:40.447Z,98412.22
2023-05-23T18:38:07.590Z,98416.09
2023-05-23T18:40:34.363Z,98405.88
2023-05-23T18:43:01.127Z,98409.22
2023-05-23T18:45:27.916Z,98419.53
2023-05-23T18:47:55.135Z,98417.94
2023-05-23T18:50:21.865Z,98428.59
2023-05-23T18:52:48.579Z,98433.69
2023-05-23T18:55:16.585Z,98435.06
2023-05-23T18:57:43.292Z,98441.03
2023-05-23T19:02:48.934Z,98444.25
2023-05-23T19:05:15.913Z,98450.25
2023-05-23T19:07:42.589Z,98453.38
2023-05-23T19:10:09.736Z,98442.78
2023-05-23T19:12:36.568Z,98450.81
2023-05-23T19:15:03.805Z,98458.38
2023-05-23T19:17:31.221Z,98462.00
2023-05-23T19:19:58.071Z,98471.53
2023-05-23T19:22:25.642Z,98473.91
2023-05-23T19:24:54.438Z,98479.50
2023-05-23T19:27:21.197Z,98487.81
2023-05-23T19:29:47.899Z,98484.25
2023-05-23T19:32:14.670Z,98492.13
2023-05-23T19:34:41.764Z,98492.09
2023-05-23T19:37:08.433Z,98494.81
2023-05-23T19:39:35.182Z,98492.09
2023-05-23T19:42:01.860Z,98509.53
2023-05-23T19:44:28.632Z,98507.59
2023-05-23T19:46:55.345Z,98509.53
2023-05-23T19:49:22.036Z,98515.84
2023-05-23T19:51:49.036Z,98523.31
2023-05-23T19:54:15.781Z,98519.78
2023-05-23T19:56:42.635Z,98526.13
2023-05-23T19:59:09.374Z,98529.28
2023-05-23T20:01:36.113Z,98529.31
2023-05-23T20:04:02.984Z,98532.03
2023-05-23T20:06:29.768Z,98530.47
2023-05-23T20:08:56.478Z,98526.16
2023-05-23T20:13:56.984Z,98542.66
2023-05-23T20:16:23.780Z,98544.25
2023-05-23T20:18:50.677Z,98548.28
2023-05-23T20:21:17.503Z,98542.38
2023-05-23T20:23:45.284Z,98550.63
2023-05-23T20:26:12.255Z,98551.06
2023-05-23T20:28:38.938Z,98546.69
2023-05-23T20:31:05.839Z,98542.34
2023-05-23T20:33:34.550Z,98548.69
2023-05-23T20:36:01.862Z,98554.63
2023-05-23T20:38:29.209Z,98560.19
2023-05-23T20:40:55.928Z,98559.41
2023-05-23T20:43:22.812Z,98558.63
2023-05-23T20:45:49.562Z,98559.44
2023-05-23T20:48:16.486Z,98569.63
2023-05-23T20:50:44.359Z,98572.81
2023-05-23T20:53:11.335Z,98574.00
2023-05-23T20:55:38.327Z,98579.56
2023-05-23T20:58:05.077Z,98579.16
2023-05-23T21:00:31.791Z,98585.44
2023-05-23T21:02:58.669Z,98586.63
2023-05-23T21:05:25.588Z,98590.53
2023-05-23T21:07:52.300Z,98594.53
2023-05-23T21:10:19.104Z,98593.34
2023-05-23T21:12:50.341Z,98587.06
2023-05-23T21:15:17.655Z,98603.97
2023-05-23T21:17:44.821Z,98602.00
2023-05-23T21:20:12.404Z,98603.97
2023-05-23T21:22:39.531Z,98606.75
2023-05-23T21:25:06.628Z,98613.84
2023-05-23T21:27:33.399Z,98608.72
2023-05-23T21:30:00.092Z,98611.50
2023-05-23T21:32:26.998Z,98612.28
2023-05-23T21:34:53.694Z,98614.63
2023-05-23T21:37:20.567Z,98605.56
2023-05-23T21:39:51.876Z,98613.41
2023-05-23T21:42:19.795Z,98615.41
2023-05-23T21:44:46.553Z,98610.69
2023-05-23T21:47:13.542Z,98608.72
2023-05-23T21:49:40.701Z,98605.56
2023-05-23T21:52:07.374Z,98605.19
2023-05-23T21:54:34.246Z,98611.84
2023-05-23T21:57:00.952Z,98610.28
2023-05-23T21:59:27.695Z,98616.16
2023-05-23T22:01:54.720Z,98609.81
2023-05-23T22:04:21.723Z,98610.59
2023-05-23T22:09:19.804Z,98620.78
2023-05-23T22:11:46.624Z,98622.34
2023-05-23T22:14:13.359Z,98631.81
2023-05-23T22:16:40.239Z,98634.19
2023-05-23T22:19:09.879Z,98627.06
2023-05-23T22:21:37.102Z,98621.56
2023-05-23T22:24:04.171Z,98610.16
2023-05-23T22:26:31.227Z,98612.13
2023-05-23T22:28:57.979Z,98613.66
2023-05-23T22:31:24.843Z,98615.22
2023-05-23T22:33:51.683Z,98616.38
2023-05-23T22:36:18.677Z,98614.47
2023-05-23T22:38:45.864Z,98621.50
2023-05-23T22:41:12.768Z,98619.53
2023-05-23T22:43:39.814Z,98627.03
2023-05-23T22:46:07.090Z,98624.66
2023-05-23T22:48:34.377Z,98620.34
2023-05-23T22:51:04.118Z,98626.19
2023-05-23T22:56:04.438Z,98631.66
2023-05-23T22:58:31.515Z,98626.22
2023-05-23T23:00:58.303Z,98624.25
2023-05-23T23:03:25.006Z,98617.59
2023-05-23T23:05:51.754Z,98619.53
2023-05-23T23:08:19.579Z,98603.44
2023-05-23T23:10:46.483Z,98627.69
2023-05-23T23:13:14.318Z,98617.47
2023-05-23T23:15:42.974Z,98619.91
2023-05-23T23:18:10.082Z,98618.63
2023-05-23T23:20:37.035Z,98619.00
2023-05-23T23:23:03.905Z,98618.28
2023-05-23T23:25:30.645Z,98615.56
2023-05-23T23:27:57.372Z,98620.25
2023-05-23T23:33:01.931Z,98615.63
2023-05-23T23:35:28.800Z,98608.56
2023-05-23T23:37:55.505Z,98617.22
2023-05-23T23:40:22.229Z,98619.22
2023-05-23T23:42:48.921Z,98621.56
2023-05-23T23:45:15.821Z,98612.91
2023-05-23T23:47:43.091Z,98624.25
2023-05-23T23:50:09.975Z,98624.19
2023-05-23T23:52:39.274Z,98616.00
2023-05-23T23:55:06.726Z,98623.06
2023-05-23T23:57:33.705Z,98622.31
